Time;durP1;ratioP1;P1;durP2;ratioP2;P2;SDS_P1;SDS_P2;PMS_P1;PMS_P2;Temp;Humidity;BMP_temperature;BMP_pressure;BME280_temperature;BME280_humidity;BME280_pressure;Samples;Min_cycle;Max_cycle;Signal;HPM_P1;HPM_P2
2023/01/19 00:02:20;;;;;;;13.10;9.40;;;;;;;-0.00;97.56;95296.90;108945;1274;24239;-82
2023/01/19 00:04:51;;;;;;;12.50;8.00;;;;;;;-0.02;97.41;95292.29;108938;1273;25409;-82
2023/01/19 00:07:25;;;;;;;12.20;8.10;;;;;;;0.03;97.67;95288.19;108951;1272;22531;-82
2023/01/19 00:09:59;;;;;;;14.30;9.40;;;;;;;0.08;97.88;95289.06;108979;1274;22536;-82
2023/01/19 00:12:30;;;;;;;12.40;9.10;;;;;;;0.10;97.71;95292.78;108894;1266;76896;-82
2023/01/19 00:15:01;;;;;;;12.30;8.60;;;;;;;0.06;97.46;95290.20;108991;1267;22527;-82
2023/01/19 00:17:39;;;;;;;10.10;7.10;;;;;;;0.07;97.75;95288.59;108970;1274;23206;-82
2023/01/19 00:20:17;;;;;;;12.30;8.10;;;;;;;0.13;97.54;95292.36;108958;1267;22570;-82
2023/01/19 00:22:49;;;;;;;9.60;6.60;;;;;;;0.17;97.61;95290.42;108983;1274;22536;-83
2023/01/19 00:25:23;;;;;;;9.80;6.20;;;;;;;0.20;97.46;95289.09;108989;1274;22512;-82
2023/01/19 00:27:57;;;;;;;9.00;6.10;;;;;;;0.21;97.57;95288.52;108925;1272;22556;-82
2023/01/19 00:30:28;;;;;;;8.90;5.70;;;;;;;0.23;97.71;95288.09;108939;1274;24304;-82
2023/01/19 00:33:00;;;;;;;8.10;4.90;;;;;;;0.27;97.81;95284.17;108939;1274;25520;-83
2023/01/19 00:35:31;;;;;;;6.60;4.30;;;;;;;0.33;97.57;95291.63;109013;1267;22560;-83
2023/01/19 00:38:10;;;;;;;8.10;4.60;;;;;;;0.34;97.67;95295.34;108982;1274;22741;-83
2023/01/19 00:40:41;;;;;;;7.50;4.90;;;;;;;0.34;97.47;95292.84;108981;1274;22542;-82
2023/01/19 00:43:16;;;;;;;8.00;5.30;;;;;;;0.35;97.56;95296.33;107543;1274;1849516;-82
2023/01/19 00:45:48;;;;;;;11.00;6.60;;;;;;;0.40;97.64;95301.91;108985;1274;24278;-83
2023/01/19 00:48:20;;;;;;;10.40;6.50;;;;;;;0.42;97.35;95300.30;108954;1274;22534;-82
2023/01/19 00:50:52;;;;;;;9.00;6.50;;;;;;;0.43;97.31;95300.12;108974;1274;22544;-82
2023/01/19 00:53:24;;;;;;;13.00;8.20;;;;;;;0.43;97.32;95297.62;108953;1264;22527;-82
2023/01/19 00:55:58;;;;;;;15.70;9.50;;;;;;;0.41;97.11;95301.29;108945;1274;22548;-82
2023/01/19 00:58:29;;;;;;;12.90;8.40;;;;;;;0.35;97.48;95300.83;108926;1274;22547;-82
2023/01/19 01:01:03;;;;;;;13.60;9.10;;;;;;;0.34;97.48;95297.27;108938;1270;22528;-82
2023/01/19 01:03:34;;;;;;;12.30;9.50;;;;;;;0.35;97.44;95292.80;108996;1273;22938;-83
2023/01/19 01:06:07;;;;;;;8.30;5.90;;;;;;;0.40;97.63;95286.20;108937;1274;22563;-82
2023/01/19 01:08:40;;;;;;;9.40;6.30;;;;;;;0.44;97.17;95282.88;108991;1274;22545;-82
2023/01/19 01:11:14;;;;;;;11.00;6.40;;;;;;;0.50;97.30;95280.89;108947;1274;22588;-82
2023/01/19 01:13:45;;;;;;;11.40;6.60;;;;;;;0.53;97.13;95275.54;108982;1267;24170;-82
2023/01/19 01:16:21;;;;;;;8.80;5.40;;;;;;;0.56;97.15;95271.88;108933;1274;22554;-82
2023/01/19 01:18:52;;;;;;;8.10;5.00;;;;;;;0.59;96.80;95269.30;108924;1274;23825;-83
2023/01/19 01:21:23;;;;;;;6.30;4.50;;;;;;;0.62;96.75;95266.29;108967;1267;24237;-82
2023/01/19 01:23:56;;;;;;;7.20;5.20;;;;;;;0.65;96.86;95269.91;108999;1274;22717;-83
2023/01/19 01:26:27;;;;;;;8.30;5.20;;;;;;;0.67;96.70;95267.16;108942;1269;22531;-83
2023/01/19 01:29:00;;;;;;;9.10;5.70;;;;;;;0.69;96.54;95263.73;108951;1267;22664;-83
2023/01/19 01:31:32;;;;;;;10.40;6.80;;;;;;;0.71;96.17;95259.59;108923;1274;22521;-82
2023/01/19 01:34:03;;;;;;;9.80;6.20;;;;;;;0.72;96.09;95256.42;108985;1274;23236;-82
2023/01/19 01:36:34;;;;;;;10.50;6.60;;;;;;;0.73;96.07;95254.49;108911;1274;22571;-82
2023/01/19 01:39:09;;;;;;;9.80;6.30;;;;;;;0.72;95.96;95253.64;108959;1270;22529;-82
2023/01/19 01:41:40;;;;;;;10.70;6.30;;;;;;;0.74;95.83;95256.38;108960;1267;22557;-83
2023/01/19 01:44:51;;;;;;;7.30;4.50;;;;;;;0.73;96.07;95257.47;108957;1273;22545;-82
2023/01/19 01:47:30;;;;;;;6.10;4.10;;;;;;;0.80;95.83;95255.89;108977;1267;25410;-83
2023/01/19 01:50:08;;;;;;;7.20;4.20;;;;;;;0.83;95.64;95253.93;108975;1274;22550;-83
2023/01/19 01:52:44;;;;;;;6.10;4.10;;;;;;;0.82;95.84;95250.73;108967;1274;22558;-83
2023/01/19 01:55:20;;;;;;;7.10;4.30;;;;;;;0.84;95.47;95253.14;108955;1274;22552;-82
2023/01/19 01:57:56;;;;;;;5.70;4.40;;;;;;;0.87;95.54;95246.83;108943;1273;22538;-82
2023/01/19 02:00:27;;;;;;;9.60;4.50;;;;;;;0.95;95.33;95242.69;108944;1262;22540;-82
2023/01/19 02:03:18;;;;;;;7.40;4.40;;;;;;;0.98;95.15;95245.41;108918;1274;22540;-82
2023/01/19 02:05:56;;;;;;;7.90;4.60;;;;;;;0.98;95.21;95242.08;108959;1271;22551;-83
2023/01/19 02:14:13;;;;;;;7.90;5.20;;;;;;;0.91;95.22;95235.58;108939;1274;78496;-83
2023/01/19 02:16:46;;;;;;;8.20;5.20;;;;;;;0.89;95.04;95238.38;109034;1273;25458;-83
2023/01/19 02:19:24;;;;;;;7.70;5.50;;;;;;;0.87;95.08;95237.91;108938;1267;22562;-83
2023/01/19 02:22:03;;;;;;;7.60;5.10;;;;;;;0.85;94.97;95237.78;108945;1268;24353;-83
2023/01/19 02:24:35;;;;;;;8.00;5.10;;;;;;;0.83;95.32;95235.50;108959;1267;25355;-83
2023/01/19 02:27:09;;;;;;;7.70;5.10;;;;;;;0.84;95.31;95232.66;108952;1274;23062;-83
2023/01/19 02:29:41;;;;;;;7.40;5.00;;;;;;;0.86;95.14;95234.19;108957;1270;22729;-83
2023/01/19 02:32:13;;;;;;;7.70;5.00;;;;;;;0.86;95.26;95230.50;108967;1267;22531;-83
2023/01/19 02:34:45;;;;;;;7.00;4.60;;;;;;;0.84;95.09;95222.99;107041;1274;2529538;-83
2023/01/19 02:37:18;;;;;;;8.70;4.60;;;;;;;0.83;95.26;95224.60;108996;1274;22533;-83
2023/01/19 02:39:53;;;;;;;6.30;4.20;;;;;;;0.84;95.30;95224.92;108962;1274;22552;-83
2023/01/19 02:42:28;;;;;;;7.20;4.90;;;;;;;0.86;95.16;95221.41;108971;1267;23712;-83
2023/01/19 02:45:05;;;;;;;7.00;4.60;;;;;;;0.90;95.00;95225.91;108960;1274;22531;-82
2023/01/19 02:47:42;;;;;;;7.00;4.40;;;;;;;0.89;94.88;95227.95;108940;1274;22548;-83
2023/01/19 02:50:40;;;;;;;7.60;4.70;;;;;;;0.86;94.92;95229.45;108982;1274;22546;-83
2023/01/19 02:53:25;;;;;;;7.20;4.80;;;;;;;0.85;94.92;95232.00;108951;1274;22589;-83
2023/01/19 02:56:04;;;;;;;7.60;4.70;;;;;;;0.85;95.00;95227.08;108975;1274;22776;-83
2023/01/19 02:58:40;;;;;;;;;;;;;;;0.85;94.95;95225.83;108994;1274;22500;-83
2023/01/19 03:01:21;;;;;;;7.30;4.60;;;;;;;0.86;95.13;95223.60;108983;1267;22526;-83
2023/01/19 03:03:59;;;;;;;6.20;4.10;;;;;;;0.85;94.95;95223.70;108925;1274;22537;-83
2023/01/19 03:06:44;;;;;;;6.60;4.10;;;;;;;0.82;95.18;95223.14;108969;1266;22554;-83
2023/01/19 03:09:22;;;;;;;6.70;4.60;;;;;;;0.78;95.06;95220.71;108972;1268;22528;-83
2023/01/19 03:12:02;;;;;;;10.90;6.70;;;;;;;0.77;95.33;95222.64;109004;1251;22545;-83
2023/01/19 03:14:42;;;;;;;7.20;4.50;;;;;;;0.76;95.29;95227.80;108967;1263;22537;-84
2023/01/19 03:17:17;;;;;;;6.10;4.50;;;;;;;0.77;95.14;95226.29;108983;1274;22546;-83
2023/01/19 03:19:50;;;;;;;7.00;4.20;;;;;;;0.77;95.43;95223.69;108940;1274;25352;-83
2023/01/19 03:22:27;;;;;;;6.50;4.40;;;;;;;0.78;95.42;95225.77;109022;1267;22550;-83
2023/01/19 03:25:03;;;;;;;6.30;3.90;;;;;;;0.79;95.27;95230.63;109028;1255;22538;-84
2023/01/19 03:27:39;;;;;;;7.20;4.90;;;;;;;0.81;95.26;95234.83;108985;1273;22527;-83
2023/01/19 03:30:17;;;;;;;9.10;5.80;;;;;;;0.83;95.21;95231.38;109017;1267;22541;-83
2023/01/19 03:32:52;;;;;;;7.20;4.80;;;;;;;0.83;95.12;95231.55;108985;1251;22835;-83
2023/01/19 03:35:26;;;;;;;8.50;5.60;;;;;;;0.83;95.30;95230.91;109061;1267;22558;-83
2023/01/19 03:37:59;;;;;;;8.10;5.70;;;;;;;0.82;95.06;95229.76;109045;1270;22537;-84
2023/01/19 03:40:34;;;;;;;10.50;7.00;;;;;;;0.81;95.03;95231.22;109000;1274;24282;-84
2023/01/19 03:43:06;;;;;;;7.70;5.40;;;;;;;0.81;95.36;95236.48;108948;1271;22902;-83
2023/01/19 03:45:39;;;;;;;8.10;5.70;;;;;;;0.82;95.22;95233.61;108987;1273;22531;-83
2023/01/19 03:48:10;;;;;;;6.80;5.20;;;;;;;0.82;95.31;95237.91;108960;1267;22527;-83
2023/01/19 03:50:42;;;;;;;8.80;6.60;;;;;;;0.83;95.28;95239.31;108980;1274;22551;-83
2023/01/19 03:53:17;;;;;;;8.90;6.00;;;;;;;0.82;95.48;95237.02;108944;1260;45926;-83
2023/01/19 03:55:50;;;;;;;8.30;4.90;;;;;;;0.83;95.09;95239.20;108958;1274;22562;-83
2023/01/19 03:58:22;;;;;;;6.60;4.60;;;;;;;0.85;95.25;95246.86;108979;1274;22535;-83
2023/01/19 04:00:54;;;;;;;4.60;3.20;;;;;;;0.86;95.26;95242.80;109003;1267;22520;-83
2023/01/19 04:03:26;;;;;;;5.30;3.00;;;;;;;0.91;95.18;95238.80;108932;1267;32476;-83
2023/01/19 04:05:58;;;;;;;2.70;1.90;;;;;;;0.92;95.16;95229.58;108969;1274;22628;-83
2023/01/19 04:08:31;;;;;;;3.10;2.20;;;;;;;0.97;94.89;95221.45;108935;1274;22591;-83
2023/01/19 04:11:02;;;;;;;2.70;2.20;;;;;;;0.98;94.87;95218.76;108993;1274;22653;-83
2023/01/19 04:13:33;;;;;;;3.70;2.20;;;;;;;0.99;94.74;95208.55;108960;1269;67320;-83
2023/01/19 04:16:06;;;;;;;2.60;2.00;;;;;;;0.99;94.84;95194.20;108976;1267;22560;-83
2023/01/19 04:18:38;;;;;;;2.70;2.20;;;;;;;1.01;94.58;95180.44;108968;1274;22551;-83
2023/01/19 04:21:09;;;;;;;3.20;1.90;;;;;;;1.00;94.74;95177.73;108990;1267;22544;-83
2023/01/19 04:23:40;;;;;;;3.40;2.40;;;;;;;1.00;94.56;95183.83;108977;1268;46425;-83
2023/01/19 04:26:12;;;;;;;6.10;3.90;;;;;;;1.00;94.67;95189.09;108993;1271;22637;-83
2023/01/19 04:28:44;;;;;;;6.30;4.40;;;;;;;0.98;94.66;95194.27;108937;1270;22531;-83
2023/01/19 04:31:15;;;;;;;7.50;4.70;;;;;;;0.94;94.91;95196.19;108969;1274;22528;-83
2023/01/19 04:33:47;;;;;;;5.50;4.30;;;;;;;0.86;94.86;95195.73;108918;1274;73614;-83
2023/01/19 04:36:18;;;;;;;5.20;3.50;;;;;;;0.85;94.79;95209.77;108945;1270;22548;-83
2023/01/19 04:38:50;;;;;;;5.10;3.60;;;;;;;0.85;95.13;95220.45;108967;1267;22541;-83
2023/01/19 04:41:21;;;;;;;4.90;3.30;;;;;;;0.82;95.25;95232.16;109018;1273;22584;-83
2023/01/19 04:43:52;;;;;;;2.90;2.40;;;;;;;0.84;95.37;95242.77;108970;1273;73313;-83
2023/01/19 04:46:26;;;;;;;4.00;2.10;;;;;;;0.85;95.13;95252.07;108963;1274;22551;-83
2023/01/19 04:48:57;;;;;;;4.10;2.70;;;;;;;0.85;95.41;95258.92;108992;1274;24265;-83
2023/01/19 04:51:28;;;;;;;2.50;2.30;;;;;;;0.86;95.09;95264.40;108932;1267;25247;-84
2023/01/19 04:54:00;;;;;;;3.50;2.80;;;;;;;0.86;95.35;95271.70;108978;1267;27189;-83
2023/01/19 04:56:35;;;;;;;3.10;2.60;;;;;;;0.86;95.29;95280.42;108971;1274;22540;-83
2023/01/19 04:59:06;;;;;;;3.30;2.40;;;;;;;0.85;95.42;95285.22;108987;1265;23890;-83
2023/01/19 05:01:40;;;;;;;5.20;3.20;;;;;;;0.83;95.44;95295.09;108996;1274;22548;-83
2023/01/19 05:04:11;;;;;;;3.30;3.00;;;;;;;0.83;95.63;95301.45;108955;1274;41626;-83
2023/01/19 05:06:45;;;;;;;3.40;3.10;;;;;;;0.83;95.80;95300.73;108992;1267;24218;-83
2023/01/19 05:09:16;;;;;;;4.20;3.20;;;;;;;0.82;95.79;95298.42;108958;1267;22531;-82
2023/01/19 05:11:48;;;;;;;4.10;3.10;;;;;;;0.80;96.02;95293.14;108938;1274;24268;-83
2023/01/19 05:14:19;;;;;;;4.50;3.00;;;;;;;0.79;95.90;95287.50;108960;1274;74212;-83
2023/01/19 05:16:50;;;;;;;3.40;2.90;;;;;;;0.79;96.04;95296.48;108988;1274;22653;-83
2023/01/19 05:19:22;;;;;;;4.60;3.20;;;;;;;0.78;95.92;95304.34;108960;1274;22534;-83
2023/01/19 05:21:54;;;;;;;3.80;3.00;;;;;;;0.78;96.22;95302.88;108986;1267;24353;-83
2023/01/19 05:24:25;;;;;;;4.40;3.20;;;;;;;0.81;96.24;95302.69;108919;1274;55911;-83
2023/01/19 05:26:57;;;;;;;4.50;3.40;;;;;;;0.82;96.30;95308.48;108944;1274;22527;-83
2023/01/19 05:29:28;;;;;;;4.60;4.00;;;;;;;0.84;96.25;95318.16;108963;1274;22523;-83
2023/01/19 05:32:02;;;;;;;4.20;3.30;;;;;;;0.86;96.53;95321.42;108963;1274;24133;-83
2023/01/19 05:34:33;;;;;;;3.70;2.90;;;;;;;0.89;96.47;95318.73;108993;1267;27768;-83
2023/01/19 05:37:04;;;;;;;4.00;3.40;;;;;;;0.90;96.48;95315.61;108955;1273;24372;-83
2023/01/19 05:39:36;;;;;;;4.60;3.60;;;;;;;0.91;96.51;95314.05;108964;1270;22548;-83
2023/01/19 05:42:07;;;;;;;5.40;4.20;;;;;;;0.93;96.18;95313.48;108997;1268;22527;-83
2023/01/19 05:44:38;;;;;;;5.10;3.00;;;;;;;0.92;96.51;95310.98;108980;1263;40950;-83
2023/01/19 05:47:09;;;;;;;4.00;2.90;;;;;;;0.84;96.16;95318.90;108963;1274;22538;-83
2023/01/19 05:49:43;;;;;;;3.70;3.00;;;;;;;0.73;96.17;95328.05;108916;1268;22527;-83
2023/01/19 05:52:14;;;;;;;4.90;3.60;;;;;;;0.70;96.71;95339.70;108982;1267;22545;-83
2023/01/19 05:54:45;;;;;;;3.90;3.50;;;;;;;0.67;96.75;95339.45;109007;1270;27427;-82
2023/01/19 05:57:16;;;;;;;5.50;3.80;;;;;;;0.59;96.95;95325.09;108982;1274;23299;-82
2023/01/19 05:59:48;;;;;;;6.30;4.00;;;;;;;0.49;97.10;95331.20;108971;1273;22645;-83
2023/01/19 06:02:19;;;;;;;5.00;3.80;;;;;;;0.41;97.01;95356.71;108992;1274;24407;-83
2023/01/19 06:04:50;;;;;;;7.00;4.60;;;;;;;0.34;97.56;95353.83;108961;1268;31132;-83
2023/01/19 06:07:22;;;;;;;8.30;4.80;;;;;;;0.30;97.75;95328.41;108933;1267;22577;-83
2023/01/19 06:09:53;;;;;;;5.10;4.40;;;;;;;0.31;98.07;95322.69;109023;1274;22523;-83
2023/01/19 06:12:24;;;;;;;7.20;5.40;;;;;;;0.34;98.13;95325.99;108964;1274;22534;-83
2023/01/19 06:14:56;;;;;;;9.50;6.20;;;;;;;0.36;98.09;95315.95;108939;1274;42456;-83
2023/01/19 06:17:27;;;;;;;17.40;9.40;;;;;;;0.30;98.66;95291.48;108966;1274;22629;-83
2023/01/19 06:19:58;;;;;;;11.50;8.40;;;;;;;0.20;98.68;95308.17;108981;1274;24404;-82
2023/01/19 06:22:29;;;;;;;19.50;9.50;;;;;;;0.16;98.43;95341.76;108980;1274;22672;-83
2023/01/19 06:25:00;;;;;;;22.70;8.20;;;;;;;0.16;98.82;95337.39;108933;1267;69909;-83
2023/01/19 06:27:32;;;;;;;10.10;6.80;;;;;;;0.10;99.15;95319.41;109013;1251;26450;-83
2023/01/19 06:30:05;;;;;;;11.60;7.90;;;;;;;0.10;99.08;95339.83;108963;1267;22531;-83
2023/01/19 06:32:36;;;;;;;9.30;6.90;;;;;;;0.14;99.43;95359.76;108948;1274;40702;-83
2023/01/19 06:35:08;;;;;;;13.50;6.70;;;;;;;0.16;99.57;95356.81;108988;1268;22557;-83
2023/01/19 06:37:39;;;;;;;20.60;7.80;;;;;;;0.10;99.50;95367.58;108951;1274;24245;-83
2023/01/19 06:40:15;;;;;;;25.10;7.20;;;;;;;0.07;99.87;95363.94;108978;1274;22548;-83
2023/01/19 06:42:48;;;;;;;10.60;7.00;;;;;;;0.08;99.62;95356.81;108898;1274;87832;-83
2023/01/19 06:45:19;;;;;;;16.10;7.30;;;;;;;0.12;99.79;95365.09;108952;1274;22543;-83
2023/01/19 06:47:52;;;;;;;14.50;6.70;;;;;;;0.11;99.94;95375.04;109006;1274;22571;-83
2023/01/19 06:50:23;;;;;;;15.00;7.10;;;;;;;0.11;99.84;95378.58;108979;1274;22547;-83
2023/01/19 06:52:56;;;;;;;7.70;6.00;;;;;;;0.09;99.85;95378.66;109019;1274;25757;-83
2023/01/19 06:55:28;;;;;;;8.70;6.20;;;;;;;0.10;99.96;95372.94;108981;1273;22540;-82
2023/01/19 06:58:00;;;;;;;8.20;6.00;;;;;;;0.09;100.00;95372.70;109010;1267;22548;-82
2023/01/19 07:00:32;;;;;;;17.20;7.40;;;;;;;0.06;100.00;95380.76;108916;1274;22660;-83
2023/01/19 07:03:05;;;;;;;14.00;7.50;;;;;;;0.04;100.00;95387.88;108989;1267;22685;-82
2023/01/19 07:05:38;;;;;;;11.00;7.60;;;;;;;0.03;100.00;95390.11;109065;1274;22523;-83
2023/01/19 07:08:09;;;;;;;11.80;6.40;;;;;;;-0.01;100.00;95395.84;109006;1274;22587;-82
2023/01/19 07:10:40;;;;;;;11.00;6.50;;;;;;;-0.04;100.00;95396.84;108963;1274;22536;-83
2023/01/19 07:13:12;;;;;;;10.20;6.60;;;;;;;-0.06;100.00;95404.10;109012;1274;22765;-83
2023/01/19 07:15:43;;;;;;;12.30;7.20;;;;;;;-0.07;100.00;95412.80;108946;1274;22523;-83
2023/01/19 07:18:14;;;;;;;11.60;7.60;;;;;;;-0.07;100.00;95402.38;108960;1274;25372;-83
2023/01/19 07:20:48;;;;;;;19.00;8.30;;;;;;;-0.09;100.00;95392.24;108958;1274;22523;-83
2023/01/19 07:23:19;;;;;;;28.10;9.20;;;;;;;-0.10;100.00;95405.58;108997;1270;38583;-83
2023/01/19 07:25:53;;;;;;;10.40;7.50;;;;;;;-0.08;100.00;95411.70;108917;1266;22527;-84
2023/01/19 07:28:25;;;;;;;13.50;7.20;;;;;;;-0.06;100.00;95407.64;109005;1274;22559;-84
2023/01/19 07:30:57;;;;;;;10.10;6.50;;;;;;;-0.07;100.00;95391.34;108948;1274;24407;-83
2023/01/19 07:33:28;;;;;;;22.00;7.10;;;;;;;-0.08;100.00;95389.70;108971;1274;32144;-84
2023/01/19 07:35:59;;;;;;;12.50;6.10;;;;;;;-0.10;100.00;95403.85;109005;1274;22708;-84
2023/01/19 07:38:31;;;;;;;10.30;5.80;;;;;;;-0.10;100.00;95409.02;108992;1267;22540;-83
2023/01/19 07:41:07;;;;;;;8.50;6.20;;;;;;;-0.13;100.00;95400.06;108958;1274;22778;-83
2023/01/19 07:43:39;;;;;;;28.60;8.10;;;;;;;-0.17;100.00;95378.42;108948;1268;24252;-84
2023/01/19 07:46:10;;;;;;;14.40;7.70;;;;;;;-0.22;100.00;95369.67;108998;1274;22542;-83
2023/01/19 07:48:43;;;;;;;10.70;7.50;;;;;;;-0.24;100.00;95389.96;108956;1270;22544;-83
2023/01/19 07:51:17;;;;;;;13.20;7.40;;;;;;;-0.25;100.00;95399.90;108963;1274;22542;-83
2023/01/19 07:54:01;;;;;;;15.30;7.80;;;;;;;-0.24;100.00;95397.77;108993;1274;22563;-83
2023/01/19 07:56:33;;;;;;;10.60;7.30;;;;;;;-0.22;100.00;95392.70;108993;1274;22548;-83
2023/01/19 07:59:06;;;;;;;10.70;8.10;;;;;;;-0.21;100.00;95399.73;108963;1274;23281;-83
2023/01/19 08:01:37;;;;;;;11.70;8.30;;;;;;;-0.20;100.00;95408.66;109020;1274;22552;-83
2023/01/19 08:04:09;;;;;;;12.40;8.40;;;;;;;-0.21;100.00;95415.31;108977;1274;22553;-83
2023/01/19 08:06:45;;;;;;;17.10;10.80;;;;;;;-0.20;100.00;95411.63;108961;1274;22537;-84
2023/01/19 08:09:18;;;;;;;13.40;8.90;;;;;;;-0.15;100.00;95405.08;108980;1274;23221;-83
2023/01/19 08:11:49;;;;;;;14.20;8.60;;;;;;;-0.11;100.00;95413.70;108991;1274;23073;-83
2023/01/19 08:14:20;;;;;;;9.70;6.90;;;;;;;-0.06;100.00;95419.01;107512;1274;1999521;-83
2023/01/19 08:16:51;;;;;;;9.80;6.80;;;;;;;-0.03;100.00;95425.23;109016;1274;22741;-83
2023/01/19 08:19:24;;;;;;;8.70;6.30;;;;;;;-0.04;100.00;95427.10;108922;1274;22607;-83
2023/01/19 08:21:57;;;;;;;8.90;6.50;;;;;;;-0.05;100.00;95419.64;109020;1267;23748;-84
2023/01/19 08:24:29;;;;;;;16.10;9.70;;;;;;;-0.01;100.00;95418.45;109049;1263;22554;-83
2023/01/19 08:27:04;;;;;;;12.30;8.20;;;;;;;0.05;100.00;95420.77;108997;1266;22587;-84
2023/01/19 08:29:40;;;;;;;13.90;9.70;;;;;;;0.07;100.00;95419.44;108949;1271;22651;-84
2023/01/19 08:32:11;;;;;;;8.70;6.20;;;;;;;0.13;100.00;95415.71;108969;1268;22761;-84
2023/01/19 08:34:42;;;;;;;9.30;6.80;;;;;;;0.20;100.00;95417.10;108972;1267;22633;-84
2023/01/19 08:37:16;;;;;;;7.80;5.90;;;;;;;0.24;100.00;95423.83;108964;1274;26434;-84
2023/01/19 08:39:47;;;;;;;9.30;6.90;;;;;;;0.24;100.00;95416.21;108977;1274;22542;-84
2023/01/19 08:42:18;;;;;;;8.90;6.40;;;;;;;0.20;100.00;95413.10;108988;1268;25376;-84
2023/01/19 08:44:49;;;;;;;8.80;6.50;;;;;;;0.23;100.00;95408.59;108966;1274;24212;-84
2023/01/19 08:47:21;;;;;;;7.50;5.80;;;;;;;0.30;100.00;95403.20;109006;1274;23258;-84
2023/01/19 08:49:52;;;;;;;9.10;5.80;;;;;;;0.37;100.00;95405.36;108932;1274;22555;-84
2023/01/19 08:52:25;;;;;;;8.90;6.30;;;;;;;0.43;100.00;95406.84;108991;1268;22590;-84
2023/01/19 08:55:00;;;;;;;8.80;6.10;;;;;;;0.51;100.00;95398.13;109001;1274;22575;-84
2023/01/19 08:57:31;;;;;;;8.00;5.70;;;;;;;0.61;100.00;95394.42;108971;1274;25268;-84
2023/01/19 09:00:06;;;;;;;7.50;5.90;;;;;;;0.67;100.00;95387.59;108956;1274;22579;-83
2023/01/19 09:02:40;;;;;;;8.80;6.20;;;;;;;0.68;100.00;95384.94;108987;1268;22520;-84
2023/01/19 09:05:12;;;;;;;6.80;5.30;;;;;;;0.69;100.00;95382.61;108963;1274;22546;-84
2023/01/19 09:07:46;;;;;;;8.70;6.20;;;;;;;0.69;100.00;95386.62;108981;1270;22550;-84
2023/01/19 09:10:19;;;;;;;6.40;5.40;;;;;;;0.70;100.00;95395.04;108974;1274;22542;-83
2023/01/19 09:12:50;;;;;;;8.40;6.00;;;;;;;0.76;100.00;95404.70;108961;1273;25415;-84
2023/01/19 09:15:24;;;;;;;7.60;5.10;;;;;;;0.83;100.00;95403.23;108975;1272;22540;-84
2023/01/19 09:17:56;;;;;;;7.80;5.80;;;;;;;0.92;100.00;95400.84;108988;1270;22603;-84
2023/01/19 09:20:29;;;;;;;8.20;6.40;;;;;;;0.99;100.00;95398.67;108949;1274;22536;-84
2023/01/19 09:23:03;;;;;;;8.10;5.70;;;;;;;1.04;100.00;95398.39;109021;1274;22540;-84
2023/01/19 09:25:34;;;;;;;6.90;5.40;;;;;;;1.10;100.00;95392.48;108969;1274;22532;-84
2023/01/19 09:28:06;;;;;;;8.50;6.20;;;;;;;1.11;100.00;95398.70;108970;1274;22527;-84
2023/01/19 09:30:38;;;;;;;7.10;5.40;;;;;;;1.13;100.00;95393.53;109013;1266;22524;-83
2023/01/19 09:33:14;;;;;;;7.70;5.70;;;;;;;1.15;100.00;95391.30;108991;1274;24034;-82
2023/01/19 09:35:47;;;;;;;7.60;5.90;;;;;;;1.17;100.00;95391.31;108975;1274;23778;-83
2023/01/19 09:38:19;;;;;;;7.80;6.00;;;;;;;1.18;100.00;95390.21;108964;1274;22522;-82
2023/01/19 09:40:55;;;;;;;9.10;6.70;;;;;;;1.19;100.00;95395.91;108974;1274;22684;-83
2023/01/19 09:43:48;;;;;;;8.50;6.10;;;;;;;1.17;100.00;95394.70;109006;1255;26501;-82
2023/01/19 09:46:23;;;;;;;8.00;6.00;;;;;;;1.12;100.00;95394.34;109026;1274;24402;-82
2023/01/19 09:48:58;;;;;;;8.30;6.40;;;;;;;0.99;100.00;95388.11;109019;1274;24284;-83
2023/01/19 09:51:36;;;;;;;9.60;7.70;;;;;;;0.88;100.00;95386.55;108970;1274;24096;-82
2023/01/19 09:54:14;;;;;;;11.50;8.40;;;;;;;0.85;100.00;95381.84;108993;1274;22737;-82
2023/01/19 09:56:47;;;;;;;11.00;8.50;;;;;;;0.84;100.00;95380.24;109011;1268;25255;-82
2023/01/19 09:59:23;;;;;;;11.70;8.60;;;;;;;0.81;100.00;95373.70;109006;1268;22537;-82
2023/01/19 10:02:14;;;;;;;11.80;9.50;;;;;;;0.83;100.00;95372.94;108962;1274;22541;-82
2023/01/19 10:04:53;;;;;;;12.30;9.30;;;;;;;0.83;100.00;95375.13;109006;1274;22527;-83
2023/01/19 10:07:39;;;;;;;12.20;8.60;;;;;;;0.82;100.00;95375.73;108962;1268;22690;-82
2023/01/19 10:10:20;;;;;;;11.90;9.90;;;;;;;0.83;100.00;95384.10;109002;1274;22534;-82
2023/01/19 10:13:04;;;;;;;10.20;7.90;;;;;;;0.83;100.00;95380.44;108960;1274;22556;-82
2023/01/19 10:15:49;;;;;;;12.00;9.10;;;;;;;0.81;100.00;95376.36;108978;1274;22558;-82
2023/01/19 10:18:24;;;;;;;10.50;7.90;;;;;;;0.86;100.00;95372.29;108951;1268;22540;-82
2023/01/19 10:21:04;;;;;;;9.40;6.70;;;;;;;0.89;100.00;95366.73;109004;1274;22526;-82
2023/01/19 10:23:45;;;;;;;8.10;5.80;;;;;;;0.89;100.00;95364.96;107464;1274;2084087;-83
2023/01/19 10:26:21;;;;;;;7.70;6.10;;;;;;;0.87;100.00;95360.05;108993;1267;22573;-82
2023/01/19 10:29:02;;;;;;;11.30;8.00;;;;;;;0.81;100.00;95356.27;109002;1267;22545;-82
2023/01/19 10:31:38;;;;;;;10.30;7.40;;;;;;;0.79;100.00;95355.84;108954;1274;22566;-83
2023/01/19 10:34:17;;;;;;;10.30;7.10;;;;;;;0.85;100.00;95352.29;108990;1274;22756;-82
2023/01/19 10:36:54;;;;;;;12.90;8.70;;;;;;;0.88;100.00;95347.59;108999;1274;22554;-82
2023/01/19 10:39:26;;;;;;;12.20;9.00;;;;;;;0.92;100.00;95351.63;108947;1274;22606;-82
2023/01/19 10:42:00;;;;;;;7.50;5.40;;;;;;;0.96;100.00;95353.11;108991;1274;22557;-82
2023/01/19 10:44:37;;;;;;;6.30;4.50;;;;;;;0.97;100.00;95349.94;109007;1272;22694;-82
2023/01/19 10:47:16;;;;;;;6.70;4.60;;;;;;;0.99;100.00;95340.70;108995;1273;22538;-82
2023/01/19 10:49:49;;;;;;;5.40;3.90;;;;;;;1.02;100.00;95335.43;108977;1268;22542;-82
2023/01/19 10:52:28;;;;;;;5.10;3.80;;;;;;;1.00;100.00;95340.95;108995;1274;22546;-82
2023/01/19 10:55:00;;;;;;;6.10;4.20;;;;;;;1.02;100.00;95347.13;107457;1274;2044527;-82
2023/01/19 10:57:36;;;;;;;6.40;4.30;;;;;;;1.04;100.00;95354.76;108965;1270;24243;-82
2023/01/19 11:00:28;;;;;;;5.70;4.50;;;;;;;1.01;100.00;95355.89;109071;1273;22616;-82
2023/01/19 11:03:00;;;;;;;7.20;5.00;;;;;;;0.91;100.00;95344.63;108999;1274;22536;-82
2023/01/19 11:05:33;;;;;;;6.60;4.40;;;;;;;0.92;100.00;95333.11;108955;1274;22616;-82
2023/01/19 11:08:24;;;;;;;6.70;4.60;;;;;;;0.93;100.00;95335.30;109006;1274;24495;-82
2023/01/19 11:11:01;;;;;;;6.60;5.20;;;;;;;0.91;100.00;95337.17;109025;1274;22569;-82
2023/01/19 11:13:34;;;;;;;6.60;4.70;;;;;;;0.90;100.00;95340.29;109003;1274;22573;-82
2023/01/19 11:16:17;;;;;;;9.20;5.90;;;;;;;0.88;100.00;95336.83;108952;1274;22534;-82
2023/01/19 11:18:54;;;;;;;8.90;6.30;;;;;;;0.80;100.00;95327.67;108967;1270;22561;-82
2023/01/19 11:21:27;;;;;;;9.20;6.90;;;;;;;0.67;100.00;95319.89;108973;1274;22542;-82
2023/01/19 11:24:01;;;;;;;14.30;9.50;;;;;;;0.58;100.00;95314.02;108981;1274;22530;-83
2023/01/19 11:26:39;;;;;;;13.80;9.00;;;;;;;0.46;100.00;95308.02;108967;1268;22576;-83
2023/01/19 11:29:21;;;;;;;12.30;9.70;;;;;;;0.37;100.00;95315.80;108957;1271;22530;-83
2023/01/19 11:31:54;;;;;;;15.60;10.60;;;;;;;0.29;100.00;95325.90;108972;1264;22628;-83
2023/01/19 11:34:35;;;;;;;15.30;10.30;;;;;;;0.22;100.00;95331.75;108812;1275;172084;-83
2023/01/19 11:37:27;;;;;;;17.50;11.60;;;;;;;0.18;100.00;95335.00;108945;1274;22546;-83
2023/01/19 11:40:01;;;;;;;14.20;10.30;;;;;;;0.18;100.00;95331.92;109003;1274;22548;-83
2023/01/19 11:42:36;;;;;;;19.00;10.90;;;;;;;0.19;100.00;95325.00;108962;1275;23244;-83
2023/01/19 11:45:16;;;;;;;23.30;12.40;;;;;;;0.14;100.00;95322.13;109025;1267;26191;-83
2023/01/19 11:47:51;;;;;;;26.10;12.50;;;;;;;0.10;100.00;95318.27;108996;1275;24254;-84
2023/01/19 11:50:29;;;;;;;30.80;14.20;;;;;;;0.07;100.00;95315.27;108955;1268;22598;-84
2023/01/19 11:53:05;;;;;;;35.70;16.20;;;;;;;0.04;100.00;95310.91;108964;1275;22547;-83
2023/01/19 11:55:42;;;;;;;44.30;15.10;;;;;;;0.04;100.00;95314.20;108952;1268;22646;-84
2023/01/19 11:58:19;;;;;;;48.00;14.50;;;;;;;0.05;100.00;95307.27;108967;1274;23232;-82
2023/01/19 12:00:56;;;;;;;45.20;14.60;;;;;;;0.04;100.00;95307.54;108995;1274;25394;-83
2023/01/19 12:03:32;;;;;;;51.70;17.10;;;;;;;0.03;100.00;95309.29;108979;1274;22527;-83
2023/01/19 12:06:08;;;;;;;57.40;16.80;;;;;;;0.04;100.00;95315.09;108914;1268;22599;-83